Time;durP1;ratioP1;P1;durP2;ratioP2;P2;SDS_P1;SDS_P2;PMS_P1;PMS_P2;Temp;Humidity;BMP_temperature;BMP_pressure;BME280_temperature;BME280_humidity;BME280_pressure;Samples;Min_cycle;Max_cycle;Signal;HPM_P1;HPM_P2
2021/10/14 00:00:39;;;;;;;11.25;7.03;;;13.00;99.90;;;;;;5003318;28;20045;-60
2021/10/14 00:03:06;;;;;;;8.73;6.13;;;13.00;99.90;;;;;;5003373;28;20033;-59
2021/10/14 00:05:34;;;;;;;9.55;6.38;;;13.10;99.90;;;;;;5007769;28;20136;-61
2021/10/14 00:08:00;;;;;;;8.35;6.70;;;13.10;99.90;;;;;;5005334;28;20033;-61
2021/10/14 00:10:27;;;;;;;11.60;6.82;;;13.10;99.90;;;;;;5001120;28;20026;-60
2021/10/14 00:12:52;;;;;;;11.48;7.15;;;13.10;99.90;;;;;;5009060;28;20053;-60
2021/10/14 00:15:18;;;;;;;10.13;6.30;;;13.00;99.90;;;;;;5005200;28;20081;-61
2021/10/14 00:17:44;;;;;;;9.70;6.22;;;13.00;99.90;;;;;;5008617;28;20041;-61
2021/10/14 00:20:10;;;;;;;10.73;6.55;;;13.00;99.90;;;;;;5003669;28;20029;-61
2021/10/14 00:22:36;;;;;;;9.65;6.75;;;13.10;99.90;;;;;;5010493;28;20045;-60
2021/10/14 00:25:02;;;;;;;9.52;6.95;;;13.10;99.90;;;;;;5010761;28;20040;-59
2021/10/14 00:27:28;;;;;;;9.68;6.30;;;13.10;99.90;;;;;;5008334;28;20046;-62
2021/10/14 00:29:54;;;;;;;8.82;6.32;;;13.00;99.90;;;;;;5005247;28;20037;-59
2021/10/14 00:32:20;;;;;;;9.10;6.38;;;13.00;99.90;;;;;;4999824;28;20056;-59
2021/10/14 00:34:46;;;;;;;12.43;6.85;;;13.00;99.90;;;;;;5002471;28;20049;-60
2021/10/14 00:37:11;;;;;;;9.35;6.63;;;13.10;99.90;;;;;;5004897;28;20025;-60
2021/10/14 00:39:37;;;;;;;9.38;6.82;;;13.00;99.90;;;;;;5006185;28;20491;-60
2021/10/14 00:42:03;;;;;;;8.43;6.15;;;13.00;99.90;;;;;;5009920;28;20112;-60
2021/10/14 00:44:51;;;;;;;10.65;6.85;;;13.00;99.90;;;;;;5009305;28;20033;-60
2021/10/14 00:47:24;;;;;;;14.38;6.93;;;13.00;99.90;;;;;;5006445;28;20030;-60
2021/10/14 00:49:51;;;;;;;9.63;6.15;;;13.00;99.90;;;;;;5006545;28;20033;-61
2021/10/14 00:52:17;;;;;;;12.70;6.97;;;13.00;99.90;;;;;;5007270;28;20026;-60
2021/10/14 00:54:45;;;;;;;11.77;6.60;;;12.90;99.90;;;;;;4998214;28;20046;-62
2021/10/14 00:57:11;;;;;;;11.05;6.90;;;12.90;99.90;;;;;;4999092;28;20077;-61
2021/10/14 00:59:39;;;;;;;10.95;6.93;;;12.90;99.90;;;;;;5000323;28;20427;-60
2021/10/14 01:02:05;;;;;;;12.43;6.97;;;12.90;99.90;;;;;;5003903;28;20034;-60
2021/10/14 01:04:31;;;;;;;9.52;6.78;;;12.90;99.90;;;;;;5008205;28;20033;-60
2021/10/14 01:06:58;;;;;;;9.32;6.50;;;12.90;99.90;;;;;;5009485;28;20490;-59
2021/10/14 01:09:23;;;;;;;9.18;6.53;;;12.90;99.90;;;;;;5007691;28;20525;-62
2021/10/14 01:11:49;;;;;;;9.93;5.82;;;12.90;99.90;;;;;;5003007;28;20030;-60
2021/10/14 01:14:15;;;;;;;11.68;6.72;;;12.80;99.90;;;;;;5007215;28;20042;-60
2021/10/14 01:16:46;;;;;;;11.95;7.13;;;12.80;99.90;;;;;;5006507;28;20483;-60
2021/10/14 01:19:13;;;;;;;11.18;6.70;;;12.80;99.90;;;;;;4996000;28;20033;-60
2021/10/14 01:21:39;;;;;;;7.68;6.22;;;12.90;99.90;;;;;;5004221;28;20038;-60
2021/10/14 01:24:06;;;;;;;9.48;6.50;;;12.80;99.90;;;;;;5008708;28;20144;-60
2021/10/14 01:26:32;;;;;;;15.73;6.53;;;12.80;99.90;;;;;;5003553;28;20055;-60
2021/10/14 01:28:57;;;;;;;15.30;6.38;;;12.80;99.90;;;;;;5006113;28;20392;-61
2021/10/14 01:31:24;;;;;;;8.95;6.40;;;12.80;99.90;;;;;;5007910;28;20038;-61
2021/10/14 01:33:50;;;;;;;12.40;6.15;;;12.80;99.90;;;;;;5009740;28;20490;-63
2021/10/14 01:36:16;;;;;;;10.07;6.60;;;12.80;99.90;;;;;;5008018;28;20045;-60
2021/10/14 01:38:42;;;;;;;10.27;6.28;;;12.70;99.90;;;;;;5009488;28;20037;-61
2021/10/14 01:41:08;;;;;;;12.38;7.07;;;12.80;99.90;;;;;;5005086;28;20030;-61
2021/10/14 01:43:34;;;;;;;10.48;6.93;;;12.80;99.90;;;;;;5006323;28;20372;-59
2021/10/14 01:46:00;;;;;;;9.80;6.65;;;12.70;99.90;;;;;;5009118;28;20029;-60
2021/10/14 01:48:27;;;;;;;10.23;5.95;;;12.70;99.90;;;;;;5009924;28;20392;-59
2021/10/14 01:50:54;;;;;;;9.35;5.70;;;12.70;99.90;;;;;;5009426;28;20029;-61
2021/10/14 01:53:20;;;;;;;14.30;6.78;;;12.70;99.90;;;;;;5006316;28;20042;-61
2021/10/14 01:55:46;;;;;;;8.60;6.10;;;12.70;99.90;;;;;;4995786;28;20049;-62
2021/10/14 01:58:12;;;;;;;8.38;6.25;;;12.70;99.90;;;;;;5007475;28;20081;-60
2021/10/14 02:00:38;;;;;;;15.07;6.32;;;12.60;99.90;;;;;;5005943;28;20033;-61
2021/10/14 02:03:05;;;;;;;8.80;6.20;;;12.70;99.90;;;;;;5009610;28;20487;-60
2021/10/14 02:05:31;;;;;;;10.68;6.78;;;12.70;99.90;;;;;;5008005;28;20076;-60
2021/10/14 02:07:57;;;;;;;11.38;6.70;;;12.60;99.90;;;;;;5003740;28;20034;-59
2021/10/14 02:10:22;;;;;;;10.27;7.30;;;12.60;99.90;;;;;;5002196;28;20044;-61
2021/10/14 02:12:48;;;;;;;9.80;6.60;;;12.60;99.90;;;;;;5006352;28;20116;-60
2021/10/14 02:15:15;;;;;;;11.65;7.10;;;12.60;99.90;;;;;;5000269;28;20054;-61
2021/10/14 02:17:40;;;;;;;9.77;6.72;;;12.70;99.90;;;;;;4995660;28;21072;-60
2021/10/14 02:20:07;;;;;;;9.85;6.97;;;12.70;99.90;;;;;;5007447;28;20125;-61
2021/10/14 02:22:33;;;;;;;7.72;5.80;;;12.60;99.90;;;;;;5005439;28;20037;-59
2021/10/14 02:24:59;;;;;;;8.98;6.28;;;12.60;99.90;;;;;;5006953;28;20490;-61
2021/10/14 02:27:25;;;;;;;11.43;6.53;;;12.60;99.90;;;;;;5010098;28;20049;-61
2021/10/14 02:29:51;;;;;;;8.43;5.97;;;12.50;99.90;;;;;;5012241;28;20042;-60
2021/10/14 02:32:17;;;;;;;10.10;5.65;;;12.50;99.90;;;;;;5008077;28;20373;-60
2021/10/14 02:34:42;;;;;;;6.68;5.78;;;12.40;99.90;;;;;;5007741;28;20045;-60
2021/10/14 02:37:08;;;;;;;8.95;6.28;;;12.40;99.90;;;;;;5011099;28;20045;-61
2021/10/14 02:39:34;;;;;;;10.77;5.97;;;12.40;99.90;;;;;;5004704;28;20038;-61
2021/10/14 02:42:00;;;;;;;11.25;6.35;;;12.30;99.90;;;;;;5011080;28;20068;-62
2021/10/14 02:44:26;;;;;;;11.98;6.47;;;12.30;99.90;;;;;;5005283;28;20040;-61
2021/10/14 02:46:53;;;;;;;8.40;6.40;;;12.20;99.90;;;;;;5010175;28;20021;-59
2021/10/14 02:49:19;;;;;;;9.82;6.35;;;12.30;99.90;;;;;;5001797;28;20483;-60
2021/10/14 02:51:45;;;;;;;12.65;6.28;;;12.30;99.90;;;;;;5003588;28;20550;-60
2021/10/14 02:54:11;;;;;;;11.70;6.78;;;12.40;99.90;;;;;;5010712;28;20057;-61
2021/10/14 02:56:37;;;;;;;10.57;5.80;;;12.40;99.90;;;;;;5011445;28;20147;-61
2021/10/14 02:59:02;;;;;;;14.10;6.35;;;12.40;99.90;;;;;;5011890;28;20037;-60
2021/10/14 03:01:28;;;;;;;10.13;5.90;;;12.30;99.90;;;;;;5002596;28;20028;-60
2021/10/14 03:03:54;;;;;;;11.07;5.80;;;12.20;99.90;;;;;;5005518;28;20037;-60
2021/10/14 03:06:19;;;;;;;12.40;6.53;;;12.10;99.90;;;;;;5005825;28;20492;-61
2021/10/14 03:08:45;;;;;;;8.68;6.10;;;12.00;99.90;;;;;;5010828;28;20026;-60
2021/10/14 03:11:11;;;;;;;8.93;5.75;;;12.00;99.90;;;;;;5009293;28;20506;-60
2021/10/14 03:13:36;;;;;;;7.82;5.40;;;11.90;99.90;;;;;;5006574;28;20455;-61
2021/10/14 03:16:04;;;;;;;7.78;5.55;;;11.80;99.90;;;;;;5005599;28;20101;-60
2021/10/14 03:18:31;;;;;;;11.82;6.70;;;11.80;99.90;;;;;;5007989;28;20518;-60
2021/10/14 03:20:57;;;;;;;8.00;5.80;;;11.80;99.90;;;;;;5006887;28;20042;-60
2021/10/14 03:23:23;;;;;;;8.07;6.22;;;11.80;99.90;;;;;;5010367;28;20041;-61
2021/10/14 03:25:49;;;;;;;11.35;6.40;;;11.80;99.90;;;;;;5008817;28;20101;-61
2021/10/14 03:28:15;;;;;;;10.75;6.13;;;11.80;99.90;;;;;;5006482;28;20034;-61
2021/10/14 03:30:40;;;;;;;8.35;5.15;;;11.90;99.90;;;;;;4994921;28;20022;-60
2021/10/14 03:33:06;;;;;;;7.80;5.40;;;11.80;99.90;;;;;;5004331;28;20027;-61
2021/10/14 03:35:32;;;;;;;8.90;5.63;;;11.80;99.90;;;;;;5008258;28;20041;-60
2021/10/14 03:37:58;;;;;;;14.65;6.50;;;11.80;99.90;;;;;;5009686;28;20130;-60
2021/10/14 03:40:24;;;;;;;11.35;6.10;;;11.90;99.90;;;;;;5001631;28;20025;-61
2021/10/14 03:42:50;;;;;;;11.23;5.80;;;11.90;99.90;;;;;;5011535;28;20065;-59
2021/10/14 03:45:16;;;;;;;9.75;5.43;;;11.90;99.90;;;;;;5006645;28;20066;-61
2021/10/14 03:47:42;;;;;;;8.15;5.93;;;11.90;99.90;;;;;;5005654;28;20388;-58
2021/10/14 03:50:09;;;;;;;8.65;5.80;;;11.90;99.90;;;;;;4996947;28;20031;-59
2021/10/14 03:52:35;;;;;;;9.73;5.78;;;11.80;99.90;;;;;;5004648;28;20048;-59
2021/10/14 03:55:01;;;;;;;7.78;5.28;;;11.70;99.90;;;;;;5006511;28;20026;-61
2021/10/14 03:57:27;;;;;;;10.00;5.60;;;11.70;99.90;;;;;;4999012;28;20041;-61
2021/10/14 03:59:52;;;;;;;7.38;5.50;;;11.70;99.90;;;;;;5005655;28;20040;-60
2021/10/14 04:02:19;;;;;;;8.88;5.70;;;11.70;99.90;;;;;;5006093;28;20076;-60
2021/10/14 04:04:45;;;;;;;11.05;5.72;;;11.70;99.90;;;;;;5007531;28;20487;-59
2021/10/14 04:07:10;;;;;;;7.13;5.20;;;11.70;99.90;;;;;;5003124;28;20086;-58
2021/10/14 04:09:36;;;;;;;7.80;5.60;;;11.80;99.90;;;;;;5003760;28;20341;-60
2021/10/14 04:12:02;;;;;;;7.35;5.15;;;11.80;99.90;;;;;;5003019;28;20109;-61
2021/10/14 04:14:29;;;;;;;8.50;5.63;;;11.80;99.90;;;;;;5003856;28;20482;-60
2021/10/14 04:16:55;;;;;;;9.70;5.40;;;11.70;99.90;;;;;;5007220;28;20471;-60
2021/10/14 04:19:20;;;;;;;10.68;6.10;;;11.70;99.90;;;;;;4999937;28;20046;-59
2021/10/14 04:21:48;;;;;;;11.35;5.85;;;11.70;99.90;;;;;;5007400;28;20160;-59
2021/10/14 04:24:14;;;;;;;10.20;5.43;;;11.70;99.90;;;;;;5007621;28;20018;-60
2021/10/14 04:26:40;;;;;;;10.25;5.82;;;11.70;99.90;;;;;;4999609;28;20033;-59
2021/10/14 04:29:06;;;;;;;7.07;5.43;;;11.70;99.90;;;;;;5011612;28;20041;-60
2021/10/14 04:31:36;;;;;;;11.57;5.45;;;11.60;99.90;;;;;;5002933;28;20380;-60
2021/10/14 04:34:02;;;;;;;10.20;5.80;;;11.70;99.90;;;;;;5009778;28;20505;-60
2021/10/14 04:36:29;;;;;;;8.88;5.65;;;11.70;99.90;;;;;;5002763;28;20403;-61
2021/10/14 04:38:55;;;;;;;11.68;5.53;;;11.70;99.90;;;;;;4996899;28;20026;-61
2021/10/14 04:41:21;;;;;;;10.85;6.03;;;11.70;99.90;;;;;;5000945;28;20117;-60
2021/10/14 04:43:47;;;;;;;8.48;5.38;;;11.70;99.90;;;;;;5003347;28;20152;-59
2021/10/14 04:46:12;;;;;;;10.13;5.30;;;11.70;99.90;;;;;;5003651;28;20044;-60
2021/10/14 04:48:38;;;;;;;8.80;5.38;;;11.50;99.90;;;;;;5010758;28;20029;-60
2021/10/14 04:51:04;;;;;;;9.27;5.53;;;11.40;99.90;;;;;;5001846;28;20035;-59
2021/10/14 04:53:29;;;;;;;8.07;5.60;;;11.40;99.90;;;;;;5007412;28;20025;-60
2021/10/14 04:55:55;;;;;;;9.90;5.60;;;11.50;99.90;;;;;;5006944;28;20040;-60
2021/10/14 04:58:21;;;;;;;8.20;5.28;;;11.50;99.90;;;;;;5005558;28;20026;-60
2021/10/14 05:00:47;;;;;;;13.57;5.72;;;11.50;99.90;;;;;;5008009;28;20079;-60
2021/10/14 05:03:12;;;;;;;11.88;5.93;;;11.40;99.90;;;;;;5008933;28;20510;-60
2021/10/14 05:05:38;;;;;;;9.88;5.63;;;11.40;99.90;;;;;;4996877;28;20038;-59
2021/10/14 05:08:04;;;;;;;24.23;11.20;;;11.40;99.90;;;;;;5001739;28;20101;-61
2021/10/14 05:10:33;;;;;;;17.25;6.05;;;11.40;99.90;;;;;;5005451;28;20043;-60
2021/10/14 05:12:58;;;;;;;8.13;5.55;;;11.40;99.90;;;;;;4999004;28;20089;-59
2021/10/14 05:15:24;;;;;;;11.95;6.60;;;11.40;99.90;;;;;;5008284;28;20508;-60
2021/10/14 05:17:50;;;;;;;9.63;6.03;;;11.50;99.90;;;;;;5002391;28;20034;-61
2021/10/14 05:20:16;;;;;;;10.93;6.80;;;11.50;99.90;;;;;;5002047;28;20065;-59
2021/10/14 05:22:41;;;;;;;8.63;5.90;;;11.60;99.90;;;;;;4996924;28;20089;-60
2021/10/14 05:25:07;;;;;;;9.85;6.78;;;11.60;99.90;;;;;;5009156;28;20026;-59
2021/10/14 05:27:34;;;;;;;9.60;7.10;;;11.70;99.90;;;;;;4997874;28;20031;-60
2021/10/14 05:30:00;;;;;;;14.18;8.25;;;11.70;99.90;;;;;;5005702;28;20479;-60
2021/10/14 05:32:26;;;;;;;13.30;7.55;;;11.80;99.90;;;;;;4995493;28;20499;-61
2021/10/14 05:34:52;;;;;;;14.63;7.38;;;11.90;99.90;;;;;;5003159;28;20038;-61
2021/10/14 05:37:17;;;;;;;11.80;7.22;;;11.90;99.90;;;;;;5004513;28;20097;-61
2021/10/14 05:39:43;;;;;;;15.52;7.85;;;11.80;99.90;;;;;;5003162;28;20033;-60
2021/10/14 05:42:09;;;;;;;13.63;7.88;;;11.80;99.90;;;;;;4999888;28;20030;-60
2021/10/14 05:44:35;;;;;;;13.70;8.45;;;11.80;99.90;;;;;;5005291;28;20037;-59
2021/10/14 05:47:00;;;;;;;15.23;8.60;;;11.90;99.90;;;;;;5007557;28;20045;-61
2021/10/14 05:49:26;;;;;;;18.65;8.20;;;12.00;99.90;;;;;;5008472;28;20029;-60
2021/10/14 05:51:52;;;;;;;23.23;9.35;;;11.90;99.90;;;;;;5008006;28;20030;-59
2021/10/14 05:54:17;;;;;;;13.60;8.30;;;12.00;99.90;;;;;;5009422;28;20435;-59
2021/10/14 05:56:43;;;;;;;19.38;9.35;;;12.00;99.90;;;;;;5006485;28;20022;-59
2021/10/14 05:59:09;;;;;;;16.23;12.50;;;12.00;99.90;;;;;;5009751;28;20483;-59
2021/10/14 06:01:34;;;;;;;17.02;9.85;;;12.00;99.90;;;;;;5005388;28;20045;-59
2021/10/14 06:04:00;;;;;;;16.23;9.02;;;12.00;99.90;;;;;;5007288;28;20026;-59
2021/10/14 06:06:26;;;;;;;18.73;9.43;;;12.00;99.90;;;;;;5009758;28;20399;-60
2021/10/14 06:08:52;;;;;;;15.40;8.93;;;12.00;99.90;;;;;;5004471;28;20048;-59
2021/10/14 06:11:18;;;;;;;17.67;9.98;;;12.00;99.90;;;;;;5010290;28;20375;-59
2021/10/14 06:13:44;;;;;;;20.52;9.60;;;12.00;99.90;;;;;;4995533;28;20051;-59
2021/10/14 06:16:09;;;;;;;17.30;9.80;;;11.90;99.90;;;;;;5002781;28;20102;-59
2021/10/14 06:18:37;;;;;;;16.08;9.80;;;11.90;99.90;;;;;;5004217;28;20041;-60
2021/10/14 06:21:03;;;;;;;19.83;9.32;;;12.00;99.90;;;;;;5005601;28;20027;-60
2021/10/14 06:23:29;;;;;;;27.35;11.27;;;11.90;99.90;;;;;;5005159;28;20488;-60
2021/10/14 06:25:55;;;;;;;27.00;11.05;;;12.00;99.90;;;;;;5003292;28;20037;-60
2021/10/14 06:28:22;;;;;;;21.90;10.73;;;12.10;99.90;;;;;;5003004;28;20535;-60
2021/10/14 06:30:47;;;;;;;21.92;9.95;;;12.10;99.90;;;;;;5005323;28;20484;-59
2021/10/14 06:33:13;;;;;;;29.48;11.40;;;12.10;99.90;;;;;;4998045;28;20035;-59
2021/10/14 06:35:39;;;;;;;24.67;12.02;;;12.10;99.90;;;;;;5002192;28;20026;-61
2021/10/14 06:38:06;;;;;;;21.85;10.35;;;12.10;99.90;;;;;;4990970;28;20038;-59
2021/10/14 06:40:33;;;;;;;25.60;12.60;;;12.20;99.90;;;;;;5004563;28;20069;-57
2021/10/14 06:42:59;;;;;;;21.77;10.32;;;12.20;99.90;;;;;;4992765;28;20037;-59
2021/10/14 06:45:25;;;;;;;24.90;10.45;;;12.20;99.90;;;;;;5001140;28;20026;-60
2021/10/14 06:47:51;;;;;;;23.60;11.02;;;12.20;99.90;;;;;;5007522;28;20034;-59
2021/10/14 06:50:17;;;;;;;20.17;10.90;;;12.20;99.90;;;;;;5008249;28;20444;-59
2021/10/14 06:52:43;;;;;;;27.77;11.52;;;12.20;99.90;;;;;;5009374;28;20038;-60
2021/10/14 06:55:09;;;;;;;19.27;11.20;;;12.20;99.90;;;;;;5006517;28;20044;-60
2021/10/14 06:57:35;;;;;;;15.50;10.45;;;12.20;99.90;;;;;;5007367;28;20092;-59
2021/10/14 07:00:03;;;;;;;20.52;11.43;;;12.10;99.90;;;;;;5004085;28;20038;-61
2021/10/14 07:02:29;;;;;;;20.48;10.75;;;12.10;99.90;;;;;;5008286;28;20032;-60
2021/10/14 07:04:54;;;;;;;22.40;10.73;;;12.10;99.90;;;;;;4999950;28;20034;-59
2021/10/14 07:07:20;;;;;;;20.35;10.48;;;12.10;99.90;;;;;;5005018;28;20034;-62
2021/10/14 07:09:46;;;;;;;27.92;10.57;;;12.10;99.90;;;;;;4994090;28;20030;-60
2021/10/14 07:12:11;;;;;;;17.63;9.48;;;12.00;99.90;;;;;;4993707;28;20035;-60
2021/10/14 07:14:38;;;;;;;24.42;10.88;;;12.00;99.90;;;;;;4993848;28;20059;-60
2021/10/14 07:17:05;;;;;;;19.70;10.63;;;12.00;99.90;;;;;;4998287;28;20038;-61
2021/10/14 07:19:30;;;;;;;24.17;11.43;;;12.00;99.90;;;;;;4999333;28;20465;-60
2021/10/14 07:21:56;;;;;;;34.15;12.07;;;12.00;99.90;;;;;;5005886;28;20040;-59
2021/10/14 07:24:23;;;;;;;26.80;10.60;;;12.00;99.90;;;;;;4999391;28;20424;-62
2021/10/14 07:26:50;;;;;;;28.65;11.60;;;12.00;99.90;;;;;;4995501;28;20381;-60
2021/10/14 07:29:16;;;;;;;25.13;10.57;;;12.10;99.90;;;;;;5007788;28;20037;-61
2021/10/14 07:31:42;;;;;;;23.13;11.27;;;12.20;99.90;;;;;;5010138;28;20025;-59
2021/10/14 07:34:08;;;;;;;20.17;9.90;;;12.30;99.90;;;;;;5009934;28;20064;-59
2021/10/14 07:36:33;;;;;;;21.80;11.20;;;12.30;99.90;;;;;;4997374;28;20034;-61
2021/10/14 07:39:01;;;;;;;17.98;10.13;;;12.30;99.90;;;;;;4993502;28;20035;-61
2021/10/14 07:41:27;;;;;;;23.27;10.70;;;12.40;99.90;;;;;;5001658;28;20030;-60
2021/10/14 07:43:54;;;;;;;17.38;10.43;;;12.50;99.90;;;;;;5011422;28;20669;-60
2021/10/14 07:46:19;;;;;;;23.20;10.80;;;12.40;99.90;;;;;;5013456;28;20061;-61
2021/10/14 07:48:45;;;;;;;21.67;10.68;;;12.40;99.90;;;;;;5002203;28;20069;-60
2021/10/14 07:51:11;;;;;;;24.60;10.88;;;12.50;99.90;;;;;;5010338;28;20029;-61
2021/10/14 07:53:37;;;;;;;25.42;12.68;;;12.50;99.90;;;;;;5011680;28;20034;-60
2021/10/14 07:56:03;;;;;;;20.05;12.23;;;12.50;99.90;;;;;;5012489;28;20053;-60
2021/10/14 07:58:29;;;;;;;25.95;12.38;;;12.50;99.90;;;;;;5006209;28;20113;-60
2021/10/14 08:00:54;;;;;;;23.40;12.90;;;12.50;99.90;;;;;;5010319;28;20067;-60
2021/10/14 08:03:20;;;;;;;22.15;12.23;;;12.50;99.90;;;;;;5009296;28;20084;-60
2021/10/14 08:05:46;;;;;;;20.83;12.77;;;12.50;99.90;;;;;;5009875;28;20475;-61
2021/10/14 08:08:12;;;;;;;21.27;12.25;;;12.50;99.90;;;;;;5008606;28;20412;-60
2021/10/14 08:10:38;;;;;;;26.05;13.85;;;12.50;99.90;;;;;;5003868;28;20056;-60
2021/10/14 08:13:04;;;;;;;26.90;14.00;;;12.50;99.90;;;;;;5004530;28;20050;-61
2021/10/14 08:15:29;;;;;;;23.25;13.88;;;12.60;99.90;;;;;;5002246;28;20120;-61
2021/10/14 08:17:55;;;;;;;27.77;15.68;;;12.60;99.90;;;;;;5009733;28;20456;-60
2021/10/14 08:20:21;;;;;;;30.42;18.23;;;12.50;99.90;;;;;;5011003;28;20112;-60
2021/10/14 08:22:49;;;;;;;36.85;18.33;;;12.40;99.90;;;;;;5011750;28;20480;-60
2021/10/14 08:25:15;;;;;;;36.42;19.02;;;12.50;99.90;;;;;;5007997;28;20089;-60
2021/10/14 08:27:45;;;;;;;31.60;18.88;;;12.50;99.90;;;;;;5007408;28;20514;-60
2021/10/14 08:30:13;;;;;;;32.92;18.58;;;12.50;99.90;;;;;;5005088;28;20026;-60
2021/10/14 08:32:41;;;;;;;28.02;18.27;;;12.40;99.90;;;;;;5005157;28;20038;-61
2021/10/14 08:35:11;;;;;;;32.47;19.10;;;12.50;99.90;;;;;;5007033;28;20076;-62
2021/10/14 08:37:39;;;;;;;28.40;18.73;;;12.60;99.90;;;;;;5010208;28;20033;-61
2021/10/14 08:40:06;;;;;;;32.92;19.88;;;12.60;99.90;;;;;;5009322;28;20416;-60
2021/10/14 08:42:32;;;;;;;33.65;19.42;;;12.70;99.90;;;;;;5010330;28;20021;-61
2021/10/14 08:45:06;;;;;;;34.38;19.50;;;12.80;99.90;;;;;;5001721;28;20088;-62
2021/10/14 08:47:32;;;;;;;30.45;19.55;;;12.90;99.90;;;;;;4992084;28;20061;-61
2021/10/14 08:49:59;;;;;;;28.92;18.02;;;13.10;99.90;;;;;;4991982;28;20022;-62
2021/10/14 08:52:25;;;;;;;30.00;17.73;;;13.40;99.90;;;;;;4995279;28;20019;-61
2021/10/14 08:54:53;;;;;;;34.63;17.33;;;13.60;99.90;;;;;;5003704;28;20435;-61
2021/10/14 08:57:19;;;;;;;29.13;16.90;;;13.70;99.90;;;;;;5009430;28;20057;-60
2021/10/14 08:59:45;;;;;;;33.08;16.65;;;13.90;99.90;;;;;;5003438;28;20461;-61
2021/10/14 09:02:11;;;;;;;27.65;16.48;;;14.20;99.90;;;;;;4999964;28;20040;-61
2021/10/14 09:04:40;;;;;;;33.45;23.95;;;14.60;99.90;;;;;;4999126;28;20077;-61
2021/10/14 09:07:12;;;;;;;30.33;15.98;;;14.70;99.90;;;;;;4992680;28;20026;-60
2021/10/14 09:09:39;;;;;;;31.08;16.30;;;14.70;99.90;;;;;;4993294;28;20037;-61
2021/10/14 09:12:10;;;;;;;25.77;14.80;;;14.80;99.90;;;;;;5010818;28;20399;-60
2021/10/14 09:15:04;;;;;;;25.00;15.30;;;14.80;99.90;;;;;;4993431;28;20049;-61
2021/10/14 09:17:40;;;;;;;23.83;15.05;;;14.80;99.90;;;;;;4995410;28;20117;-60
2021/10/14 09:20:31;;;;;;;26.45;15.82;;;14.80;99.90;;;;;;4995951;28;20070;-59
2021/10/14 09:23:05;;;;;;;23.63;15.32;;;14.90;99.90;;;;;;5001741;28;20030;-59
2021/10/14 09:25:41;;;;;;;21.40;14.27;;;14.90;99.90;;;;;;5010043;28;20546;-59
2021/10/14 09:28:10;;;;;;;24.35;14.98;;;14.90;99.90;;;;;;4998127;28;20029;-59
2021/10/14 09:30:50;;;;;;;22.02;14.70;;;14.90;99.90;;;;;;5008936;28;20376;-61
2021/10/14 09:33:36;;;;;;;21.77;14.20;;;14.80;99.90;;;;;;5002995;28;20026;-59
2021/10/14 09:36:23;;;;;;;25.70;16.40;;;14.90;99.90;;;;;;4995813;28;20057;-59
2021/10/14 09:39:02;;;;;;;24.42;14.68;;;14.90;99.90;;;;;;5001515;28;20056;-59
2021/10/14 09:41:37;;;;;;;27.08;14.55;;;15.10;99.90;;;;;;5005706;28;20383;-60
2021/10/14 09:44:06;;;;;;;21.70;13.98;;;15.10;99.90;;;;;;5001136;28;20048;-59
2021/10/14 09:46:43;;;;;;;19.40;12.48;;;15.20;99.90;;;;;;5005147;28;20053;-61
2021/10/14 09:49:28;;;;;;;21.08;13.38;;;15.20;99.90;;;;;;5001022;28;20180;-60
2021/10/14 09:51:57;;;;;;;26.20;14.55;;;15.30;99.90;;;;;;5000068;28;20092;-59
2021/10/14 09:54:23;;;;;;;21.08;13.05;;;15.30;99.90;;;;;;4999653;28;20052;-60
2021/10/14 09:56:49;;;;;;;20.15;12.27;;;15.30;99.90;;;;;;5006293;28;20185;-59
2021/10/14 09:59:15;;;;;;;14.93;9.65;;;15.40;99.90;;;;;;4997293;28;20113;-60
2021/10/14 10:01:42;;;;;;;17.35;9.65;;;15.40;99.90;;;;;;5007531;28;20037;-59
2021/10/14 10:04:08;;;;;;;21.73;9.88;;;15.50;99.90;;;;;;5007645;28;20383;-60
2021/10/14 10:06:36;;;;;;;13.00;8.73;;;15.60;99.90;;;;;;5004367;28;20103;-61
2021/10/14 10:09:08;;;;;;;10.18;7.85;;;15.70;99.90;;;;;;5004305;28;20030;-60
2021/10/14 10:11:39;;;;;;;11.65;7.40;;;15.60;99.90;;;;;;5004497;28;20034;-60
2021/10/14 10:14:05;;;;;;;11.50;7.47;;;15.60;99.90;;;;;;5002942;28;20495;-60
2021/10/14 10:16:31;;;;;;;13.20;8.15;;;15.70;99.90;;;;;;5003974;28;20041;-60
2021/10/14 10:19:02;;;;;;;15.50;7.45;;;15.80;99.90;;;;;;4998427;28;20037;-61
2021/10/14 10:21:33;;;;;;;12.18;6.43;;;15.80;99.90;;;;;;5001977;28;20088;-60
2021/10/14 10:24:01;;;;;;;14.45;6.45;;;15.80;99.90;;;;;;5001335;28;20038;-60
2021/10/14 10:26:33;;;;;;;14.13;5.63;;;15.80;99.90;;;;;;5010510;28;20038;-61
2021/10/14 10:29:04;;;;;;;9.35;6.00;;;15.80;99.90;;;;;;5005410;28;20088;-61
2021/10/14 10:32:02;;;;;;;8.30;5.20;;;15.90;99.90;;;;;;4999151;28;20026;-59
2021/10/14 10:37:16;;;;;;;7.30;4.78;;;15.70;99.90;;;;;;5005076;28;20039;-59
2021/10/14 10:39:51;;;;;;;10.20;5.07;;;15.70;99.90;;;;;;4999372;28;20030;-60
2021/10/14 10:42:38;;;;;;;10.35;6.03;;;15.60;99.90;;;;;;5001529;28;20038;-59
2021/10/14 10:45:25;;;;;;;10.20;6.47;;;15.60;99.90;;;;;;4999642;28;20050;-59
2021/10/14 10:47:53;;;;;;;12.88;6.65;;;15.60;99.90;;;;;;5004940;28;20078;-60
2021/10/14 10:50:45;;;;;;;12.65;6.40;;;15.50;99.90;;;;;;4994268;28;20034;-60
2021/10/14 10:53:12;;;;;;;10.90;7.15;;;15.50;99.90;;;;;;5012165;28;20026;-59
2021/10/14 10:55:38;;;;;;;13.15;5.95;;;15.40;99.90;;;;;;5005344;28;20041;-59
2021/10/14 10:58:07;;;;;;;10.35;6.13;;;15.40;99.90;;;;;;5011806;28;20041;-59
2021/10/14 11:00:34;;;;;;;11.98;6.50;;;15.40;99.90;;;;;;5005278;28;20034;-60
2021/10/14 11:03:23;;;;;;;9.68;6.03;;;15.50;99.90;;;;;;5012357;28;20033;-58
2021/10/14 11:05:50;;;;;;;11.63;5.20;;;15.60;99.90;;;;;;5008146;28;20116;-61
2021/10/14 11:08:27;;;;;;;10.70;5.00;;;15.70;99.90;;;;;;5008317;28;20030;-61
2021/10/14 11:10:55;;;;;;;6.53;4.68;;;15.60;99.90;;;;;;5003057;28;20030;-60
2021/10/14 11:13:23;;;;;;;9.93;4.40;;;15.60;99.90;;;;;;5006521;28;20077;-60
2021/10/14 11:15:56;;;;;;;7.97;4.00;;;15.70;99.90;;;;;;5008689;28;20404;-58
2021/10/14 11:18:24;;;;;;;8.43;3.90;;;15.70;99.90;;;;;;5008372;28;20030;-59
2021/10/14 11:20:55;;;;;;;11.70;3.92;;;15.60;99.90;;;;;;5000395;28;20027;-61
2021/10/14 11:23:24;;;;;;;4.63;2.95;;;15.60;99.90;;;;;;4998491;28;20034;-60
2021/10/14 11:26:19;;;;;;;5.75;3.10;;;15.60;99.90;;;;;;4997635;28;20399;-60
2021/10/14 11:29:05;;;;;;;6.35;3.30;;;15.60;99.90;;;;;;5010350;28;20038;-60
2021/10/14 11:31:49;;;;;;;4.57;2.75;;;15.60;99.90;;;;;;5012008;28;20041;-60
2021/10/14 11:34:18;;;;;;;5.45;3.40;;;15.60;99.90;;;;;;5010351;28;20063;-60
2021/10/14 11:37:05;;;;;;;5.90;3.17;;;15.60;99.90;;;;;;5007754;28;20030;-59
2021/10/14 11:39:42;;;;;;;9.25;3.90;;;15.50;99.90;;;;;;5004254;28;20073;-59
2021/10/14 11:42:09;;;;;;;4.10;3.20;;;15.50;99.90;;;;;;5010346;28;20025;-59
2021/10/14 11:44:38;;;;;;;5.38;3.10;;;15.50;99.90;;;;;;5012702;28;20494;-61
2021/10/14 11:47:06;;;;;;;4.95;3.30;;;15.50;99.90;;;;;;5007371;28;20101;-60
2021/10/14 11:49:32;;;;;;;7.45;3.22;;;15.40;99.90;;;;;;5005999;28;20069;-60
2021/10/14 11:52:06;;;;;;;6.82;3.53;;;15.40;99.90;;;;;;4999597;28;20029;-59
2021/10/14 11:54:35;;;;;;;9.97;4.90;;;15.50;99.90;;;;;;4993149;28;20030;-60
2021/10/14 11:57:02;;;;;;;7.47;5.30;;;15.40;99.90;;;;;;4995346;28;20444;-62
2021/10/14 11:59:29;;;;;;;7.53;5.07;;;15.40;99.90;;;;;;5002507;28;20114;-60
2021/10/14 12:02:13;;;;;;;9.32;5.10;;;15.30;99.90;;;;;;4993986;28;20038;-60
2021/10/14 12:04:50;;;;;;;9.02;5.78;;;15.30;99.90;;;;;;4993622;28;20077;-62
2021/10/14 12:07:21;;;;;;;9.23;5.70;;;15.30;99.90;;;;;;5012419;28;20034;-60
2021/10/14 12:09:48;;;;;;;7.45;5.05;;;15.30;99.90;;;;;;5007138;28;20025;-60
2021/10/14 12:12:19;;;;;;;8.52;5.40;;;15.30;99.90;;;;;;5003816;28;20831;-61
2021/10/14 12:14:45;;;;;;;8.48;5.15;;;15.20;99.90;;;;;;4992814;28;20042;-59
2021/10/14 12:17:18;;;;;;;7.57;4.70;;;15.20;99.90;;;;;;5008088;28;20603;-60
2021/10/14 12:19:46;;;;;;;21.25;4.95;;;15.30;99.90;;;;;;5005352;28;20069;-61
2021/10/14 12:22:15;;;;;;;6.03;4.32;;;15.30;99.90;;;;;;5000954;28;20041;-59
2021/10/14 12:24:59;;;;;;;7.53;4.07;;;15.30;99.90;;;;;;5002924;28;20445;-60
2021/10/14 12:27:46;;;;;;;9.25;4.40;;;15.30;99.90;;;;;;4993384;28;20022;-59
2021/10/14 12:30:26;;;;;;;8.45;3.60;;;15.40;99.90;;;;;;4992515;28;20027;-60
2021/10/14 12:32:55;;;;;;;8.13;3.97;;;15.50;99.90;;;;;;5006520;28;20037;-60
2021/10/14 12:35:26;;;;;;;31.35;5.93;;;15.50;99.90;;;;;;4998848;28;20040;-59
2021/10/14 12:38:13;;;;;;;17.17;4.20;;;15.40;99.90;;;;;;4993710;28;20429;-60
2021/10/14 12:40:44;;;;;;;7.93;3.00;;;15.30;99.90;;;;;;4994934;28;20034;-60
2021/10/14 12:43:28;;;;;;;12.15;3.50;;;15.30;99.90;;;;;;4995144;28;20034;-60
2021/10/14 12:46:20;;;;;;;9.02;3.47;;;15.40;99.90;;;;;;4995808;28;20033;-59